Time;durP1;ratioP1;P1;durP2;ratioP2;P2;SDS_P1;SDS_P2;PMS_P1;PMS_P2;Temp;Humidity;BMP_temperature;BMP_pressure;BME280_temperature;BME280_humidity;BME280_pressure;Samples;Min_cycle;Max_cycle;Signal;HPM_P1;HPM_P2
2021/03/21 00:00:57;;;;;;;8.32;4.65;;;4.40;56.10;;;;;;5077421;28;20127;-77
2021/03/21 00:03:24;;;;;;;8.85;4.75;;;4.40;56.20;;;;;;5076504;28;20143;-74
2021/03/21 00:05:51;;;;;;;9.90;5.80;;;4.40;56.10;;;;;;5094136;28;20135;-78
2021/03/21 00:08:21;;;;;;;7.40;4.60;;;4.40;55.80;;;;;;5093475;28;20123;-77
2021/03/21 00:10:49;;;;;;;8.85;5.40;;;4.30;56.10;;;;;;5094075;28;20130;-77
2021/03/21 00:13:16;;;;;;;8.27;4.78;;;4.30;56.00;;;;;;5094049;28;20131;-76
2021/03/21 00:15:43;;;;;;;8.70;5.15;;;4.30;55.90;;;;;;5093308;28;20620;-77
2021/03/21 00:18:10;;;;;;;7.90;5.00;;;4.20;56.00;;;;;;5093673;28;20462;-77
2021/03/21 00:20:40;;;;;;;9.05;4.72;;;4.20;56.20;;;;;;5094159;28;20130;-76
2021/03/21 00:23:07;;;;;;;8.23;4.50;;;4.20;56.10;;;;;;5093334;28;20051;-77
2021/03/21 00:25:36;;;;;;;8.90;4.90;;;4.20;56.20;;;;;;5076191;28;20052;-77
2021/03/21 00:28:05;;;;;;;7.90;4.78;;;4.10;56.20;;;;;;5093661;28;20134;-77
2021/03/21 00:30:35;;;;;;;9.35;5.00;;;4.20;56.00;;;;;;5093772;28;20048;-76
2021/03/21 00:33:03;;;;;;;7.88;4.75;;;4.10;56.10;;;;;;5092130;28;20182;-77
2021/03/21 00:35:30;;;;;;;7.15;4.18;;;4.10;56.40;;;;;;5093793;28;20122;-76
2021/03/21 00:38:00;;;;;;;8.27;4.72;;;4.00;56.60;;;;;;5093648;28;20123;-77
2021/03/21 00:40:29;;;;;;;8.52;4.28;;;4.00;56.40;;;;;;5093114;28;20453;-77
2021/03/21 00:42:56;;;;;;;7.55;4.25;;;4.00;57.00;;;;;;5093954;28;20131;-77
2021/03/21 00:45:25;;;;;;;7.85;4.70;;;4.10;56.40;;;;;;5094069;28;20126;-76
2021/03/21 00:47:53;;;;;;;7.22;4.53;;;4.00;56.70;;;;;;5075365;28;20105;-76
2021/03/21 00:50:23;;;;;;;9.05;4.50;;;4.00;56.80;;;;;;5093891;28;20048;-75
2021/03/21 00:52:49;;;;;;;7.55;4.10;;;4.00;56.80;;;;;;5093691;28;20144;-76
2021/03/21 00:55:17;;;;;;;7.25;4.53;;;4.00;57.10;;;;;;5093785;28;20072;-77
2021/03/21 00:57:44;;;;;;;8.68;4.35;;;3.90;57.30;;;;;;5093546;28;20075;-76
2021/03/21 01:00:18;;;;;;;8.00;4.38;;;3.90;57.20;;;;;;5093181;28;20553;-76
2021/03/21 01:02:45;;;;;;;;;;;3.90;57.60;;;;;;5070599;28;660313;-76
2021/03/21 01:05:16;;;;;;;8.63;5.00;;;3.90;57.80;;;;;;5094769;28;19920;-77
2021/03/21 01:07:43;;;;;;;7.03;4.53;;;4.00;57.70;;;;;;5094575;28;20131;-76
2021/03/21 01:10:11;;;;;;;9.55;4.85;;;4.10;57.50;;;;;;5076651;28;20175;-76
2021/03/21 01:12:39;;;;;;;6.25;3.72;;;4.00;57.20;;;;;;5094392;28;20131;-76
2021/03/21 01:15:07;;;;;;;7.03;4.10;;;4.00;57.80;;;;;;5094327;28;20135;-76
2021/03/21 01:17:34;;;;;;;8.05;4.55;;;3.90;57.90;;;;;;5094718;28;20625;-76
2021/03/21 01:20:00;;;;;;;7.47;4.35;;;3.90;57.80;;;;;;5093149;28;20508;-76
2021/03/21 01:22:27;;;;;;;7.90;4.05;;;3.90;58.10;;;;;;5094262;28;20182;-77
2021/03/21 01:24:54;;;;;;;7.97;4.53;;;3.90;58.30;;;;;;5093966;28;20139;-77
2021/03/21 01:27:20;;;;;;;6.93;4.28;;;3.90;58.30;;;;;;5093677;28;20557;-78
2021/03/21 01:29:48;;;;;;;7.65;4.07;;;3.90;58.80;;;;;;5093985;28;20131;-77
2021/03/21 01:32:14;;;;;;;9.82;5.45;;;3.80;58.70;;;;;;5094008;28;20565;-77
2021/03/21 01:34:41;;;;;;;8.55;4.32;;;3.80;59.10;;;;;;5091217;28;20135;-77
2021/03/21 01:37:07;;;;;;;9.50;5.20;;;3.80;59.00;;;;;;5092578;28;20127;-77
2021/03/21 01:39:34;;;;;;;9.05;4.75;;;3.80;59.40;;;;;;5075927;28;20054;-77
2021/03/21 01:42:10;;;;;;;9.43;5.35;;;3.80;59.50;;;;;;5093416;28;20147;-78
2021/03/21 01:44:36;;;;;;;11.02;5.13;;;3.80;59.40;;;;;;5093103;28;20560;-76
2021/03/21 01:47:34;;;;;;;7.70;4.50;;;3.80;59.40;;;;;;5093591;28;20142;-77
2021/03/21 01:50:06;;;;;;;8.95;4.95;;;3.80;59.70;;;;;;5084352;28;20060;-77
2021/03/21 01:52:40;;;;;;;6.78;4.53;;;3.80;60.00;;;;;;5093429;28;20072;-76
2021/03/21 01:55:12;;;;;;;8.63;4.45;;;3.80;60.20;;;;;;5077536;28;20749;-77
2021/03/21 01:57:39;;;;;;;7.65;4.47;;;3.80;60.30;;;;;;5076037;28;20574;-77
2021/03/21 02:00:09;;;;;;;8.73;4.38;;;3.80;60.40;;;;;;5093631;28;20139;-77
2021/03/21 02:02:38;;;;;;;7.85;4.80;;;3.80;60.50;;;;;;5092983;28;20619;-77
2021/03/21 02:05:07;;;;;;;8.77;5.32;;;3.90;60.00;;;;;;5075466;28;20459;-78
2021/03/21 02:08:12;;;;;;;7.22;4.22;;;3.80;60.50;;;;;;5091601;28;20130;-77
2021/03/21 02:10:45;;;;;;;9.50;4.90;;;3.80;61.00;;;;;;5092712;28;20127;-77
2021/03/21 02:13:20;;;;;;;7.35;4.15;;;3.80;61.00;;;;;;5078446;28;20126;-77
2021/03/21 02:15:57;;;;;;;10.52;5.45;;;3.70;61.20;;;;;;5093649;28;20126;-77
2021/03/21 02:18:29;;;;;;;7.68;4.32;;;3.80;61.40;;;;;;5093089;28;20135;-77
2021/03/21 02:21:22;;;;;;;9.32;5.22;;;3.70;61.50;;;;;;5092846;28;21152;-76
2021/03/21 02:24:41;;;;;;;9.15;4.60;;;3.80;61.60;;;;;;5077923;28;20119;-76
2021/03/21 02:27:16;;;;;;;8.23;4.25;;;3.70;61.90;;;;;;5076859;28;20080;-77
2021/03/21 02:29:50;;;;;;;6.88;4.47;;;3.80;61.90;;;;;;5092843;28;20079;-77
2021/03/21 02:32:23;;;;;;;8.90;4.43;;;3.70;61.90;;;;;;5092862;28;20043;-77
2021/03/21 02:35:01;;;;;;;7.43;4.40;;;3.70;61.70;;;;;;5092959;28;20127;-77
2021/03/21 02:37:37;;;;;;;8.23;4.40;;;3.70;61.70;;;;;;5075247;28;20074;-76
2021/03/21 02:40:17;;;;;;;8.93;4.78;;;3.70;61.70;;;;;;5092479;28;20472;-77
2021/03/21 02:42:47;;;;;;;7.15;4.20;;;3.70;61.50;;;;;;5092775;28;20477;-76
2021/03/21 02:45:19;;;;;;;8.70;4.80;;;3.70;61.50;;;;;;5093278;28;20131;-75
2021/03/21 02:47:48;;;;;;;8.13;4.40;;;3.70;61.40;;;;;;5092535;28;20082;-75
2021/03/21 02:50:25;;;;;;;10.20;4.88;;;3.70;61.70;;;;;;5093153;28;20073;-76
2021/03/21 02:52:58;;;;;;;8.23;4.32;;;3.70;61.40;;;;;;5092710;28;20048;-76
2021/03/21 02:55:30;;;;;;;8.25;4.38;;;3.80;61.60;;;;;;5092718;28;20569;-76
2021/03/21 02:58:04;;;;;;;8.95;4.70;;;3.70;62.00;;;;;;5092900;28;20462;-77
2021/03/21 03:00:35;;;;;;;7.18;4.53;;;3.70;61.80;;;;;;5074290;28;20054;-76
2021/03/21 03:03:05;;;;;;;9.85;5.00;;;3.60;62.10;;;;;;5092142;28;20139;-76
2021/03/21 03:05:38;;;;;;;8.10;4.45;;;3.70;62.10;;;;;;5092784;28;20135;-76
2021/03/21 03:08:13;;;;;;;6.75;4.38;;;3.70;62.50;;;;;;5092603;28;20135;-76
2021/03/21 03:10:45;;;;;;;9.13;4.30;;;3.70;62.70;;;;;;5092363;28;20131;-76
2021/03/21 03:13:21;;;;;;;7.65;4.90;;;3.60;62.80;;;;;;5092908;28;20119;-76
2021/03/21 03:15:51;;;;;;;9.57;4.63;;;3.60;63.10;;;;;;5091969;28;20552;-77
2021/03/21 03:18:33;;;;;;;10.10;4.72;;;3.60;63.60;;;;;;5092076;28;20142;-77
2021/03/21 03:21:07;;;;;;;8.52;4.80;;;3.60;64.30;;;;;;5074980;28;20213;-76
2021/03/21 03:23:40;;;;;;;8.98;4.55;;;3.60;64.40;;;;;;5092595;28;20071;-76
2021/03/21 03:26:11;;;;;;;7.60;4.35;;;3.50;65.10;;;;;;5092368;28;20127;-76
2021/03/21 03:28:46;;;;;;;7.90;4.50;;;3.50;65.30;;;;;;5092275;28;20503;-77
2021/03/21 03:31:19;;;;;;;8.30;4.60;;;3.50;65.40;;;;;;5089687;28;20161;-77
2021/03/21 03:33:46;;;;;;;8.25;4.10;;;3.50;65.50;;;;;;5092661;28;20131;-77
2021/03/21 03:36:15;;;;;;;9.05;4.53;;;3.50;65.60;;;;;;5092469;28;20401;-77
2021/03/21 03:38:45;;;;;;;7.63;4.40;;;3.60;65.90;;;;;;5091562;28;20484;-77
2021/03/21 03:41:21;;;;;;;8.93;4.45;;;3.60;65.70;;;;;;5092174;28;20510;-77
2021/03/21 03:43:59;;;;;;;7.65;4.05;;;3.60;66.00;;;;;;5091819;28;20131;-76
2021/03/21 03:46:35;;;;;;;7.85;4.57;;;3.60;65.90;;;;;;5092117;28;20059;-76
2021/03/21 03:49:15;;;;;;;9.07;4.70;;;3.60;65.90;;;;;;5074415;28;20132;-77
2021/03/21 03:52:03;;;;;;;7.68;4.60;;;3.60;65.70;;;;;;5081148;28;20076;-77
2021/03/21 03:54:34;;;;;;;7.55;4.43;;;3.60;65.70;;;;;;5092279;28;20044;-76
2021/03/21 03:57:09;;;;;;;7.47;4.13;;;3.60;65.90;;;;;;5091978;28;20056;-76
2021/03/21 03:59:52;;;;;;;;;;;3.60;66.10;;;;;;5091505;28;20416;-77
2021/03/21 04:02:25;;;;;;;7.35;4.00;;;3.60;65.90;;;;;;5089549;28;19967;-76
2021/03/21 04:05:02;;;;;;;6.85;4.05;;;3.60;66.10;;;;;;5088495;28;20040;-77
2021/03/21 04:07:39;;;;;;;8.07;4.25;;;3.60;66.40;;;;;;5090255;28;20086;-76
2021/03/21 04:10:13;;;;;;;8.48;4.40;;;3.60;66.40;;;;;;5091854;28;20058;-76
2021/03/21 04:12:45;;;;;;;6.55;4.05;;;3.60;66.30;;;;;;5092660;28;20127;-76
2021/03/21 04:15:17;;;;;;;6.63;4.13;;;3.60;66.10;;;;;;5092307;28;20139;-76
2021/03/21 04:17:49;;;;;;;7.18;4.28;;;3.60;66.30;;;;;;5091691;28;20127;-76
2021/03/21 04:20:21;;;;;;;7.70;4.22;;;3.70;66.10;;;;;;5092169;28;20054;-77
2021/03/21 04:22:52;;;;;;;8.60;4.85;;;3.60;66.10;;;;;;5091771;28;20135;-76
2021/03/21 04:25:22;;;;;;;7.35;4.32;;;3.60;66.30;;;;;;5074242;28;20556;-76
2021/03/21 04:27:58;;;;;;;8.27;4.47;;;3.60;66.80;;;;;;5091435;28;20575;-77
2021/03/21 04:30:30;;;;;;;8.00;4.00;;;3.60;66.20;;;;;;5091636;28;20489;-77
2021/03/21 04:33:00;;;;;;;8.50;4.90;;;3.60;66.80;;;;;;5091599;28;20163;-77
2021/03/21 04:35:31;;;;;;;8.63;4.28;;;3.60;66.60;;;;;;5092268;28;20127;-76
2021/03/21 04:38:01;;;;;;;8.65;5.00;;;3.60;66.50;;;;;;5091792;28;20452;-77
2021/03/21 04:40:29;;;;;;;6.57;3.95;;;3.60;66.00;;;;;;5091485;28;20518;-77
2021/03/21 04:43:00;;;;;;;7.97;4.53;;;3.60;66.80;;;;;;5090714;28;20151;-77
2021/03/21 04:45:33;;;;;;;7.07;4.13;;;3.60;66.80;;;;;;5074631;28;20183;-77
2021/03/21 04:48:04;;;;;;;6.88;4.00;;;3.50;67.40;;;;;;5091347;28;20135;-77
2021/03/21 04:50:33;;;;;;;8.68;4.28;;;3.60;66.70;;;;;;5075771;28;20267;-76
2021/03/21 04:53:07;;;;;;;7.32;4.43;;;3.60;67.00;;;;;;5091426;28;20062;-76
2021/03/21 04:55:42;;;;;;;8.90;4.50;;;3.50;67.00;;;;;;5073687;28;20048;-76
2021/03/21 04:58:26;;;;;;;7.53;4.15;;;3.60;67.10;;;;;;5070726;28;20068;-76
2021/03/21 05:01:05;;;;;;;6.50;3.75;;;3.50;67.50;;;;;;5085434;28;20115;-76
2021/03/21 05:03:38;;;;;;;7.20;4.15;;;3.60;67.40;;;;;;5090530;28;20047;-76
2021/03/21 05:06:13;;;;;;;8.75;4.65;;;3.60;67.40;;;;;;5094792;28;20044;-77
2021/03/21 05:08:50;;;;;;;7.72;4.38;;;3.50;67.40;;;;;;5074680;28;20170;-76
2021/03/21 05:11:18;;;;;;;7.22;4.18;;;3.60;66.80;;;;;;5094083;28;20157;-76
2021/03/21 05:13:55;;;;;;;8.25;3.92;;;3.50;67.10;;;;;;5075792;28;20178;-77
2021/03/21 05:16:28;;;;;;;9.00;4.40;;;3.50;67.10;;;;;;5093893;28;20051;-77
2021/03/21 05:19:08;;;;;;;7.65;3.95;;;3.50;67.20;;;;;;5093319;28;20087;-76
2021/03/21 05:21:42;;;;;;;7.90;4.10;;;3.50;67.40;;;;;;5094727;28;20048;-76
2021/03/21 05:24:16;;;;;;;7.53;4.25;;;3.50;67.40;;;;;;5079643;28;20040;-76
2021/03/21 05:26:50;;;;;;;7.70;3.72;;;3.50;67.10;;;;;;5094098;28;20477;-76
2021/03/21 05:29:39;;;;;;;6.88;3.60;;;3.50;67.40;;;;;;5076801;28;20203;-76
2021/03/21 05:32:07;;;;;;;7.07;3.80;;;3.50;67.80;;;;;;5078268;28;20283;-76
2021/03/21 05:34:35;;;;;;;6.35;4.03;;;3.50;67.30;;;;;;5094272;28;20603;-77
2021/03/21 05:37:20;;;;;;;7.15;3.97;;;3.50;67.50;;;;;;5094723;28;20139;-77
2021/03/21 05:40:16;;;;;;;7.05;4.15;;;3.60;67.30;;;;;;5078382;28;20048;-77
2021/03/21 05:43:20;;;;;;;8.32;4.22;;;3.60;67.00;;;;;;5095049;28;20131;-77
2021/03/21 05:46:25;;;;;;;6.50;3.65;;;3.60;66.50;;;;;;5099173;28;20067;-77
2021/03/21 05:49:29;;;;;;;5.25;3.38;;;3.50;66.80;;;;;;5086924;28;20084;-77
2021/03/21 05:52:13;;;;;;;7.20;3.83;;;3.60;67.00;;;;;;5083714;28;20074;-76
2021/03/21 05:55:26;;;;;;;7.72;3.80;;;3.60;66.70;;;;;;5076060;28;20565;-77
2021/03/21 05:58:49;;;;;;;8.32;4.35;;;3.50;67.20;;;;;;5093494;28;20561;-76
2021/03/21 06:02:05;;;;;;;7.10;3.50;;;3.50;67.20;;;;;;5093403;28;20135;-76
2021/03/21 06:05:21;;;;;;;6.00;3.45;;;3.60;67.10;;;;;;5047476;28;20463;-76
2021/03/21 06:08:32;;;;;;;7.18;4.03;;;3.60;66.80;;;;;;5050886;28;20516;-76
2021/03/21 06:11:46;;;;;;;6.85;3.72;;;3.60;66.90;;;;;;5087020;28;20552;-76
2021/03/21 06:15:33;;;;;;;8.23;4.10;;;3.60;66.90;;;;;;5078922;28;20445;-76
2021/03/21 06:18:34;;;;;;;7.15;4.28;;;3.60;66.50;;;;;;5093171;28;20044;-77
2021/03/21 06:21:39;;;;;;;7.55;4.30;;;3.60;66.30;;;;;;5093525;28;20079;-76
2021/03/21 06:25:02;;;;;;;7.38;4.35;;;3.60;66.30;;;;;;5077570;28;20127;-76
2021/03/21 06:28:15;;;;;;;6.30;3.70;;;3.60;65.90;;;;;;5092970;28;20561;-76
2021/03/21 06:31:15;;;;;;;7.72;3.92;;;3.60;65.90;;;;;;5079240;28;20308;-76
2021/03/21 06:33:52;;;;;;;7.32;3.90;;;3.50;66.40;;;;;;5076424;28;20052;-76
2021/03/21 06:36:32;;;;;;;7.32;3.78;;;3.60;66.20;;;;;;5074883;28;20055;-76
2021/03/21 06:39:37;;;;;;;7.18;4.20;;;3.60;66.10;;;;;;5083975;28;20143;-77
2021/03/21 06:42:41;;;;;;;7.15;3.90;;;3.60;66.40;;;;;;5092500;28;20512;-77
2021/03/21 06:45:43;;;;;;;;;;;3.60;66.50;;;;;;5093064;28;20115;-82
2021/03/21 06:49:00;;;;;;;7.20;3.47;;;3.60;66.20;;;;;;5094196;28;19955;-76
2021/03/21 06:51:44;;;;;;;7.65;4.03;;;3.70;65.50;;;;;;5093304;28;20080;-76
2021/03/21 06:54:33;;;;;;;6.88;3.40;;;3.70;65.40;;;;;;5075278;28;20138;-75
2021/03/21 06:58:08;;;;;;;7.05;3.95;;;3.70;65.30;;;;;;5088439;28;20126;-75
2021/03/21 07:01:21;;;;;;;6.35;3.78;;;3.70;64.90;;;;;;5082217;28;20055;-75
2021/03/21 07:04:51;;;;;;;7.72;3.55;;;3.70;65.70;;;;;;5102821;28;20090;-75
2021/03/21 07:08:17;;;;;;;6.00;3.75;;;3.60;65.80;;;;;;5079273;28;20048;-75
2021/03/21 07:11:23;;;;;;;5.72;3.55;;;3.70;65.30;;;;;;5086871;28;20568;-75
2021/03/21 07:15:02;;;;;;;7.10;4.10;;;3.70;65.00;;;;;;5084826;28;20070;-75
2021/03/21 07:18:44;;;;;;;6.50;3.90;;;3.80;65.10;;;;;;5045881;28;20127;-75
2021/03/21 07:22:08;;;;;;;5.65;3.42;;;3.80;65.00;;;;;;5086692;28;20548;-76
2021/03/21 07:25:19;;;;;;;8.18;3.60;;;3.80;65.10;;;;;;5095645;28;20593;-75
2021/03/21 07:28:15;;;;;;;5.90;3.80;;;3.80;65.30;;;;;;5085502;28;20718;-75
2021/03/21 07:30:58;;;;;;;7.90;3.90;;;3.70;65.50;;;;;;5080126;28;20139;-75
2021/03/21 07:33:35;;;;;;;6.93;3.60;;;3.80;65.50;;;;;;5087848;28;20135;-75
2021/03/21 07:36:25;;;;;;;6.88;3.70;;;3.80;65.60;;;;;;5081206;28;20064;-75
2021/03/21 07:39:29;;;;;;;6.35;3.88;;;3.90;65.10;;;;;;5088291;28;20109;-75
2021/03/21 07:42:28;;;;;;;6.55;3.42;;;3.90;65.50;;;;;;5083683;28;20131;-75
2021/03/21 07:45:26;;;;;;;6.97;3.80;;;3.90;65.20;;;;;;5088185;28;20465;-75
2021/03/21 07:48:29;;;;;;;6.25;3.75;;;4.00;65.10;;;;;;5077624;28;20121;-75
2021/03/21 07:51:08;;;;;;;6.40;3.67;;;4.00;65.10;;;;;;5059465;28;20507;-75
2021/03/21 07:53:41;;;;;;;7.10;3.97;;;4.00;65.50;;;;;;5093016;28;20505;-75
2021/03/21 07:56:16;;;;;;;7.22;3.55;;;4.00;65.70;;;;;;5085163;28;20071;-75
2021/03/21 07:58:47;;;;;;;7.13;3.67;;;4.00;65.00;;;;;;5096036;28;20557;-75
2021/03/21 08:01:16;;;;;;;6.47;3.60;;;4.10;65.30;;;;;;5093760;28;20066;-75
2021/03/21 08:04:00;;;;;;;7.78;3.25;;;4.00;65.60;;;;;;5102141;28;20127;-76
2021/03/21 08:06:32;;;;;;;5.85;3.60;;;4.00;65.90;;;;;;5088868;28;20135;-75
2021/03/21 08:09:16;;;;;;;7.43;3.63;;;4.10;65.90;;;;;;5096604;28;20127;-75
2021/03/21 08:11:48;;;;;;;6.35;3.70;;;4.10;65.80;;;;;;5085248;28;20101;-74
2021/03/21 08:14:23;;;;;;;6.68;3.78;;;4.20;65.00;;;;;;5092423;28;20119;-75
2021/03/21 08:16:55;;;;;;;6.28;3.72;;;4.20;65.40;;;;;;5092159;28;20450;-75
2021/03/21 08:19:27;;;;;;;6.10;3.38;;;4.20;65.40;;;;;;5091852;28;20056;-75
2021/03/21 08:21:55;;;;;;;7.07;3.75;;;4.20;65.30;;;;;;5091620;28;20961;-75
2021/03/21 08:24:26;;;;;;;7.68;3.63;;;4.20;65.20;;;;;;5092800;28;20049;-75
2021/03/21 08:26:53;;;;;;;7.07;4.15;;;4.20;65.40;;;;;;5092837;28;20211;-75
2021/03/21 08:29:24;;;;;;;7.63;3.70;;;4.20;65.50;;;;;;5072846;28;20126;-76
2021/03/21 08:32:07;;;;;;;6.05;3.30;;;4.20;65.30;;;;;;5073969;28;20052;-75
2021/03/21 08:34:47;;;;;;;7.15;3.90;;;4.20;65.50;;;;;;5091274;28;20480;-75
2021/03/21 08:37:36;;;;;;;10.32;5.38;;;4.20;65.40;;;;;;5086006;28;20044;-75
2021/03/21 08:40:20;;;;;;;7.70;4.15;;;4.20;65.50;;;;;;5088156;28;20147;-75
2021/03/21 08:42:51;;;;;;;7.82;4.07;;;4.30;64.90;;;;;;5094533;28;20076;-75
2021/03/21 08:45:33;;;;;;;6.07;3.42;;;4.30;65.50;;;;;;5076861;28;20493;-75
2021/03/21 08:48:16;;;;;;;6.07;3.40;;;4.20;65.60;;;;;;5068184;28;20040;-73
2021/03/21 08:50:47;;;;;;;6.15;3.50;;;4.10;65.50;;;;;;5095492;28;20044;-76
2021/03/21 08:53:35;;;;;;;6.05;3.47;;;4.20;65.20;;;;;;5095208;28;20158;-76
2021/03/21 08:56:19;;;;;;;7.18;3.53;;;4.20;64.80;;;;;;5088178;28;20116;-76
2021/03/21 08:58:48;;;;;;;6.10;3.00;;;4.20;64.50;;;;;;5075636;28;20482;-75
2021/03/21 09:01:21;;;;;;;7.07;3.40;;;4.20;64.60;;;;;;5075318;28;20080;-76
2021/03/21 09:03:49;;;;;;;6.75;3.30;;;4.30;64.30;;;;;;5074803;28;20140;-76
2021/03/21 09:06:33;;;;;;;5.47;3.00;;;4.30;64.30;;;;;;5074717;28;20135;-75
2021/03/21 09:09:20;;;;;;;7.20;3.72;;;4.40;64.10;;;;;;5057511;28;20056;-75
2021/03/21 09:11:50;;;;;;;6.20;3.38;;;4.50;63.60;;;;;;5094179;28;20044;-75
2021/03/21 09:14:27;;;;;;;5.13;2.85;;;4.50;63.30;;;;;;5094781;28;20461;-75
2021/03/21 09:17:02;;;;;;;5.30;3.10;;;4.50;63.50;;;;;;5076644;28;20113;-74
2021/03/21 09:19:32;;;;;;;6.85;3.08;;;4.60;62.90;;;;;;5094618;28;20052;-77
2021/03/21 09:22:02;;;;;;;5.47;3.28;;;4.70;63.40;;;;;;5093020;28;20139;-75
2021/03/21 09:24:33;;;;;;;6.65;3.58;;;4.70;63.00;;;;;;5092533;28;20502;-75
2021/03/21 09:27:31;;;;;;;5.28;2.95;;;4.80;62.20;;;;;;5094014;28;20511;-77
2021/03/21 09:30:02;;;;;;;5.45;2.97;;;4.90;62.30;;;;;;5104176;28;20067;-78
2021/03/21 09:32:31;;;;;;;5.55;3.10;;;4.90;61.90;;;;;;5085233;28;20090;-77
2021/03/21 09:35:33;;;;;;;4.95;2.85;;;4.90;61.60;;;;;;5099004;28;20135;-76
2021/03/21 09:38:09;;;;;;;11.23;5.45;;;4.90;61.90;;;;;;5093785;28;20074;-78
2021/03/21 09:40:42;;;;;;;5.90;3.22;;;4.90;61.90;;;;;;5074230;28;20083;-76
2021/03/21 09:43:14;;;;;;;6.35;3.10;;;4.90;61.80;;;;;;5093535;28;20437;-77
2021/03/21 09:45:44;;;;;;;6.90;3.55;;;4.90;62.20;;;;;;5094166;28;20119;-74
2021/03/21 09:48:23;;;;;;;6.50;3.40;;;4.90;61.90;;;;;;5094585;28;20051;-77
2021/03/21 09:50:59;;;;;;;5.38;2.75;;;4.90;61.70;;;;;;5076484;28;20127;-79
2021/03/21 09:53:57;;;;;;;6.43;3.30;;;4.80;62.60;;;;;;5077009;28;20147;-75
2021/03/21 09:56:38;;;;;;;6.45;3.30;;;5.00;62.00;;;;;;5080320;28;20493;-77
2021/03/21 09:59:15;;;;;;;5.40;3.00;;;4.90;62.80;;;;;;5087892;28;20501;-77
2021/03/21 10:01:47;;;;;;;4.88;2.88;;;5.00;62.20;;;;;;5092646;28;20162;-76
2021/03/21 10:04:29;;;;;;;6.22;3.22;;;5.00;62.00;;;;;;5074349;28;20088;-76
2021/03/21 10:07:01;;;;;;;5.65;3.25;;;5.00;62.60;;;;;;5097016;28;20090;-79
2021/03/21 10:09:32;;;;;;;5.45;3.10;;;4.90;62.90;;;;;;5099072;28;20075;-76
2021/03/21 10:12:05;;;;;;;5.88;2.92;;;5.00;62.60;;;;;;5091873;28;20056;-77
2021/03/21 10:14:51;;;;;;;4.68;2.70;;;5.00;62.50;;;;;;5090248;28;20059;-76
2021/03/21 10:17:45;;;;;;;6.43;3.25;;;5.00;62.80;;;;;;5080947;28;20056;-75
2021/03/21 10:20:13;;;;;;;;;;;5.00;63.00;;;;;;5115793;28;20055;-76
2021/03/21 10:23:00;;;;;;;7.03;3.53;;;5.10;62.40;;;;;;5113714;28;19920;-78
2021/03/21 10:25:55;;;;;;;6.07;2.85;;;5.20;62.60;;;;;;5072369;28;20041;-74
2021/03/21 10:28:50;;;;;;;;;;;5.10;62.90;;;;;;5040786;28;20471;-78
2021/03/21 10:31:32;;;;;;;7.03;3.42;;;5.20;62.70;;;;;;5075137;28;19968;-78
2021/03/21 10:34:36;;;;;;;6.90;3.60;;;5.20;63.00;;;;;;5080686;28;20093;-78
2021/03/21 10:37:04;;;;;;;;;;;5.20;63.30;;;;;;5087145;28;20485;-77
2021/03/21 10:40:11;;;;;;;7.75;3.28;;;5.20;63.80;;;;;;5094367;28;20026;-77
2021/03/21 10:42:50;;;;;;;13.82;6.68;;;5.20;64.00;;;;;;5088079;28;20122;-78
2021/03/21 10:45:46;;;;;;;7.70;3.50;;;5.40;64.00;;;;;;5076983;28;20468;-77
2021/03/21 10:48:53;;;;;;;6.63;3.30;;;5.40;62.30;;;;;;5094915;28;20142;-78
2021/03/21 10:51:20;;;;;;;6.13;2.97;;;5.40;63.20;;;;;;5089015;28;20054;-79
2021/03/21 10:54:17;;;;;;;6.15;3.55;;;5.40;63.70;;;;;;5083816;28;20141;-79
2021/03/21 10:57:24;;;;;;;6.97;3.50;;;5.40;62.90;;;;;;5084723;28;20048;-78
2021/03/21 11:00:14;;;;;;;6.05;3.20;;;5.50;62.10;;;;;;5084175;28;20135;-77
2021/03/21 11:02:44;;;;;;;6.18;3.40;;;5.60;61.50;;;;;;5093657;28;20489;-77
2021/03/21 11:05:30;;;;;;;4.70;2.50;;;5.60;61.40;;;;;;5093781;28;20132;-79
2021/03/21 11:08:17;;;;;;;6.43;3.17;;;5.60;62.60;;;;;;5093310;28;20055;-76
2021/03/21 11:10:48;;;;;;;6.82;3.33;;;5.60;62.00;;;;;;5077236;28;20044;-75
2021/03/21 11:13:17;;;;;;;6.43;3.25;;;5.70;61.40;;;;;;5075557;28;20044;-76
2021/03/21 11:15:45;;;;;;;6.75;3.50;;;5.80;61.50;;;;;;5093932;28;20135;-75
2021/03/21 11:18:24;;;;;;;6.20;3.22;;;5.90;61.80;;;;;;5097482;28;20075;-75
2021/03/21 11:21:07;;;;;;;7.25;3.22;;;6.00;61.80;;;;;;5099547;28;20048;-76
2021/03/21 11:23:46;;;;;;;6.68;3.72;;;6.10;61.50;;;;;;5076472;28;20135;-75
2021/03/21 11:26:28;;;;;;;5.55;2.88;;;6.20;61.10;;;;;;5095066;28;20135;-76
2021/03/21 11:29:12;;;;;;;7.05;4.10;;;6.30;61.90;;;;;;5094707;28;20130;-76
2021/03/21 11:31:43;;;;;;;6.53;3.80;;;6.30;61.90;;;;;;5094867;28;20576;-76
2021/03/21 11:34:21;;;;;;;7.20;3.70;;;6.40;62.50;;;;;;5094422;28;20382;-76
2021/03/21 11:37:01;;;;;;;7.70;4.22;;;6.60;61.50;;;;;;5096173;28;20119;-75
2021/03/21 11:39:36;;;;;;;5.80;3.58;;;6.60;61.10;;;;;;5100194;28;20501;-76
2021/03/21 11:42:19;;;;;;;6.72;3.55;;;6.80;60.40;;;;;;5100119;28;20135;-76
2021/03/21 11:44:49;;;;;;;7.50;3.67;;;6.80;60.00;;;;;;5093868;28;20051;-75
2021/03/21 11:47:29;;;;;;;7.85;3.83;;;6.80;60.10;;;;;;5093714;28;20058;-75
2021/03/21 11:49:57;;;;;;;8.15;3.72;;;6.90;59.30;;;;;;5093147;28;20139;-76
2021/03/21 11:52:27;;;;;;;7.35;4.05;;;6.80;60.70;;;;;;5091963;28;20380;-78
2021/03/21 11:54:55;;;;;;;8.27;4.25;;;6.80;60.60;;;;;;5088418;28;20395;-78
2021/03/21 11:57:37;;;;;;;6.65;4.18;;;6.80;60.50;;;;;;5093097;28;20139;-78
2021/03/21 12:00:17;;;;;;;5.75;3.70;;;6.90;60.50;;;;;;5077607;28;20122;-75
2021/03/21 12:02:52;;;;;;;7.65;3.90;;;6.70;61.40;;;;;;5089847;28;20048;-75
2021/03/21 12:05:21;;;;;;;8.23;4.47;;;6.70;62.00;;;;;;5091823;28;20126;-76
2021/03/21 12:07:49;;;;;;;7.97;4.57;;;6.70;61.00;;;;;;5089625;28;20162;-76
2021/03/21 12:10:31;;;;;;;7.97;4.20;;;6.70;62.40;;;;;;5091194;28;20048;-76
2021/03/21 12:12:59;;;;;;;6.65;3.90;;;6.60;63.10;;;;;;5089816;28;20516;-75
2021/03/21 12:15:38;;;;;;;6.53;3.65;;;6.60;62.50;;;;;;5089767;28;20051;-76
2021/03/21 12:18:12;;;;;;;7.22;3.67;;;6.60;63.10;;;;;;5091145;28;20443;-77
2021/03/21 12:20:46;;;;;;;7.07;3.42;;;6.50;63.00;;;;;;5099084;28;20062;-75
2021/03/21 12:23:48;;;;;;;6.28;3.35;;;6.40;62.80;;;;;;5093793;28;20071;-76
2021/03/21 12:26:19;;;;;;;7.72;3.83;;;6.50;62.30;;;;;;5092252;28;20556;-75
2021/03/21 12:28:59;;;;;;;5.63;3.30;;;6.60;62.10;;;;;;5074425;28;20185;-76
2021/03/21 12:31:34;;;;;;;8.25;4.43;;;6.60;61.90;;;;;;5088930;28;20140;-76
2021/03/21 12:34:28;;;;;;;6.55;4.00;;;6.70;61.10;;;;;;5092256;28;20073;-76
2021/03/21 12:37:08;;;;;;;6.90;3.70;;;6.70;61.20;;;;;;5092185;28;20138;-75
2021/03/21 12:39:39;;;;;;;8.30;3.67;;;6.70;62.10;;;;;;5092152;28;20086;-75
2021/03/21 12:42:32;;;;;;;6.63;3.78;;;6.60;62.60;;;;;;5092537;28;20076;-76
2021/03/21 12:45:24;;;;;;;7.97;3.63;;;6.60;61.40;;;;;;5090384;28;20139;-76
2021/03/21 12:48:02;;;;;;;7.97;3.65;;;6.60;62.00;;;;;;5065856;28;20402;-75
2021/03/21 12:50:47;;;;;;;6.35;3.47;;;6.70;62.10;;;;;;5091938;28;20454;-75
2021/03/21 12:53:21;;;;;;;;;;;6.70;61.90;;;;;;5091740;28;20138;-75
2021/03/21 12:55:50;;;;;;;5.80;3.30;;;6.70;62.10;;;;;;5091368;28;20019;-76
2021/03/21 12:58:18;;;;;;;7.63;3.90;;;6.70;62.20;;;;;;5089458;28;20066;-75
2021/03/21 13:00:45;;;;;;;7.50;3.90;;;6.70;62.30;;;;;;5091162;28;20139;-76
2021/03/21 13:03:26;;;;;;;6.47;3.80;;;6.70;62.50;;;;;;5090472;28;20498;-76
2021/03/21 13:05:53;;;;;;;6.88;4.10;;;6.70;62.50;;;;;;5080106;28;20505;-76
2021/03/21 13:08:20;;;;;;;6.35;3.95;;;6.80;62.40;;;;;;5057398;28;20533;-75
2021/03/21 13:10:49;;;;;;;6.72;3.60;;;6.80;62.30;;;;;;5091328;28;20052;-75
2021/03/21 13:13:16;;;;;;;8.10;4.10;;;6.80;63.30;;;;;;5091509;28;20176;-75
2021/03/21 13:15:43;;;;;;;7.97;4.22;;;6.90;62.70;;;;;;5092145;28;20058;-75
2021/03/21 13:18:17;;;;;;;6.43;3.90;;;6.90;63.00;;;;;;5096503;28;20460;-75
2021/03/21 13:20:44;;;;;;;7.25;4.20;;;6.90;62.90;;;;;;5102596;28;20754;-76
2021/03/21 13:23:11;;;;;;;8.57;4.43;;;6.90;63.10;;;;;;5103012;28;20083;-75
2021/03/21 13:25:37;;;;;;;8.48;4.88;;;7.00;63.60;;;;;;5103372;28;20133;-75
2021/03/21 13:28:08;;;;;;;7.97;4.45;;;7.00;64.40;;;;;;5103781;28;20082;-75
2021/03/21 13:30:39;;;;;;;7.28;4.05;;;7.00;64.70;;;;;;5093205;28;20131;-75
2021/03/21 13:33:08;;;;;;;7.35;4.65;;;7.00;64.70;;;;;;5093403;28;20434;-76
2021/03/21 13:35:35;;;;;;;7.32;4.10;;;7.00;64.40;;;;;;5099315;28;20071;-75
2021/03/21 13:38:02;;;;;;;6.60;4.10;;;7.00;65.00;;;;;;5098845;28;20508;-75
2021/03/21 13:40:34;;;;;;;6.07;4.07;;;7.10;65.30;;;;;;5095392;28;20138;-74
2021/03/21 13:43:02;;;;;;;6.80;4.13;;;7.10;65.40;;;;;;5097676;28;20043;-75
2021/03/21 13:45:33;;;;;;;7.90;4.30;;;7.10;65.40;;;;;;5102175;28;20067;-75
2021/03/21 13:48:00;;;;;;;8.05;4.53;;;7.20;66.40;;;;;;5102485;28;20078;-75
2021/03/21 13:50:28;;;;;;;6.93;4.10;;;7.20;65.80;;;;;;5101775;28;20468;-75
2021/03/21 13:52:55;;;;;;;8.75;4.90;;;7.20;66.20;;;;;;5100793;28;20071;-74
2021/03/21 13:55:28;;;;;;;10.00;5.25;;;7.20;66.50;;;;;;5101636;28;20076;-76
2021/03/21 13:57:55;;;;;;;9.73;5.47;;;7.30;67.00;;;;;;5100451;28;20074;-75
2021/03/21 14:00:23;;;;;;;8.07;5.00;;;7.20;66.60;;;;;;5100681;28;20079;-75